createdAt,value
2018-07-10T00:00:38.042Z,0.00
2018-07-10T00:03:11.193Z,0.00
2018-07-10T00:04:11.362Z,0.00
2018-07-10T00:05:11.534Z,0.00
2018-07-10T00:06:11.702Z,0.00
2018-07-10T00:07:11.871Z,0.00
2018-07-10T00:08:12.083Z,0.00
2018-07-10T00:09:12.214Z,0.00
2018-07-10T00:10:12.372Z,0.00
2018-07-10T00:11:12.568Z,0.00
2018-07-10T00:12:12.750Z,0.00
2018-07-10T00:13:12.919Z,0.00
2018-07-10T00:14:13.333Z,0.00
2018-07-10T00:15:13.309Z,0.00
2018-07-10T00:16:13.490Z,0.00
2018-07-10T00:17:13.659Z,0.00
2018-07-10T00:18:13.836Z,0.00
2018-07-10T00:19:14.006Z,0.00
2018-07-10T00:20:14.296Z,0.00
2018-07-10T00:21:14.395Z,0.00
2018-07-10T00:22:14.572Z,0.00
2018-07-10T00:23:14.748Z,0.00
2018-07-10T00:24:14.915Z,0.00
2018-07-10T00:25:15.091Z,0.00
2018-07-10T00:26:15.314Z,0.00
2018-07-10T00:27:15.376Z,0.00
2018-07-10T00:28:15.546Z,0.00
2018-07-10T00:29:15.718Z,0.00
2018-07-10T00:30:15.888Z,0.00
2018-07-10T00:31:16.058Z,0.00
2018-07-10T00:32:16.238Z,0.00
2018-07-10T00:33:16.407Z,0.00
2018-07-10T00:34:16.584Z,0.00
2018-07-10T00:35:17.055Z,0.00
2018-07-10T00:36:16.928Z,0.00
2018-07-10T00:37:17.129Z,0.00
2018-07-10T00:38:17.328Z,0.00
2018-07-10T00:39:17.684Z,0.00
2018-07-10T00:40:17.610Z,0.00
2018-07-10T00:41:17.776Z,0.00
2018-07-10T00:42:17.944Z,0.00
2018-07-10T00:43:18.115Z,0.00
2018-07-10T00:44:18.283Z,0.00
2018-07-10T00:45:18.452Z,0.00
2018-07-10T00:46:18.624Z,0.00
2018-07-10T00:47:18.797Z,0.00
2018-07-10T00:48:18.968Z,0.00
2018-07-10T00:49:19.141Z,0.00
2018-07-10T00:50:19.306Z,0.00
2018-07-10T00:51:19.475Z,0.00
2018-07-10T00:52:19.650Z,0.00
2018-07-10T00:53:19.826Z,0.00
2018-07-10T00:54:20.001Z,0.00
2018-07-10T00:55:20.170Z,0.00
2018-07-10T07:21:06.565Z,270.00
2018-07-10T07:22:06.616Z,258.75
2018-07-10T07:23:06.791Z,230.63
2018-07-10T07:24:06.959Z,236.25
2018-07-10T07:25:07.130Z,247.50
2018-07-10T07:26:07.302Z,286.88
2018-07-10T07:27:07.474Z,286.88
2018-07-10T07:28:07.644Z,258.75
2018-07-10T07:29:07.825Z,247.50
2018-07-10T07:30:08.002Z,225.00
2018-07-10T07:31:08.167Z,225.00
2018-07-10T07:32:08.339Z,241.88
2018-07-10T07:33:08.504Z,241.88
2018-07-10T07:34:08.680Z,230.63
2018-07-10T07:35:08.910Z,264.38
2018-07-10T07:36:09.020Z,315.00
2018-07-10T07:37:09.191Z,326.25
2018-07-10T07:38:09.368Z,343.13
2018-07-10T07:39:09.545Z,309.38
2018-07-10T07:40:09.717Z,258.75
2018-07-10T07:41:09.887Z,219.38
2018-07-10T07:42:10.059Z,253.13
2018-07-10T07:43:10.231Z,264.38
2018-07-10T07:44:10.537Z,225.00
2018-07-10T07:45:10.584Z,225.00
2018-07-10T07:46:10.753Z,236.25
2018-07-10T07:47:10.916Z,247.50
2018-07-10T07:48:11.092Z,281.25
2018-07-10T07:49:11.265Z,270.00
2018-07-10T07:50:11.439Z,225.00
2018-07-10T07:51:11.609Z,213.75
2018-07-10T07:52:11.796Z,264.38
2018-07-10T07:53:11.951Z,270.00
2018-07-10T07:54:12.117Z,298.13
2018-07-10T07:55:12.298Z,270.00
2018-07-10T07:56:12.460Z,241.88
2018-07-10T07:57:12.637Z,230.63
2018-07-10T07:58:12.808Z,236.25
2018-07-10T07:59:12.982Z,258.75
2018-07-10T08:00:13.149Z,236.25
2018-07-10T08:01:13.323Z,258.75
2018-07-10T08:02:13.480Z,264.38
2018-07-10T08:03:13.656Z,225.00
2018-07-10T08:04:13.822Z,213.75
2018-07-10T08:05:13.991Z,247.50
2018-07-10T08:06:14.166Z,241.88
2018-07-10T08:07:14.335Z,241.88
2018-07-10T08:08:14.511Z,236.25
2018-07-10T08:09:14.690Z,230.63
2018-07-10T08:10:14.859Z,225.00
2018-07-10T08:11:15.030Z,225.00
2018-07-10T08:12:15.200Z,236.25
2018-07-10T08:13:15.374Z,241.88
2018-07-10T08:14:15.552Z,253.13
2018-07-10T08:15:15.730Z,258.75
2018-07-10T08:16:15.892Z,258.75
2018-07-10T08:17:16.069Z,253.13
2018-07-10T08:18:16.247Z,247.50
2018-07-10T08:19:16.492Z,264.38
2018-07-10T08:20:16.596Z,286.88
2018-07-10T08:21:16.762Z,331.88
2018-07-10T08:22:16.939Z,371.25
2018-07-10T08:23:17.113Z,393.75
2018-07-10T08:24:17.278Z,416.25
2018-07-10T08:25:17.446Z,427.50
2018-07-10T08:26:17.621Z,421.88
2018-07-10T08:27:17.795Z,433.13
2018-07-10T08:28:17.964Z,450.00
2018-07-10T08:29:18.136Z,416.25
2018-07-10T08:30:18.304Z,365.63
2018-07-10T08:31:18.481Z,270.00
2018-07-10T08:32:18.649Z,253.13
2018-07-10T08:33:18.851Z,241.88
2018-07-10T08:34:19.015Z,241.88
2018-07-10T08:35:19.191Z,241.88
2018-07-10T08:36:19.372Z,258.75
2018-07-10T08:37:19.545Z,275.63
2018-07-10T08:38:19.722Z,286.88
2018-07-10T08:39:19.979Z,292.50
2018-07-10T08:40:20.214Z,292.50
2018-07-10T08:41:20.275Z,303.75
2018-07-10T08:42:20.450Z,331.88
2018-07-10T08:43:20.618Z,360.00
2018-07-10T08:44:20.792Z,388.13
2018-07-10T08:45:20.969Z,421.88
2018-07-10T08:46:21.142Z,444.38
2018-07-10T08:47:21.310Z,466.88
2018-07-10T08:48:21.481Z,472.50
2018-07-10T08:49:21.652Z,466.88
2018-07-10T08:50:21.823Z,450.00
2018-07-10T08:51:22.002Z,444.38
2018-07-10T08:52:22.163Z,421.88
2018-07-10T08:53:22.336Z,388.13
2018-07-10T08:54:22.516Z,360.00
2018-07-10T08:55:22.687Z,331.88
2018-07-10T08:56:22.851Z,309.38
2018-07-10T08:57:23.024Z,281.25
2018-07-10T08:58:23.198Z,264.38
2018-07-10T08:59:23.367Z,258.75
2018-07-10T09:00:23.540Z,253.13
2018-07-10T09:01:23.710Z,247.50
2018-07-10T09:02:23.885Z,247.50
2018-07-10T09:03:24.051Z,241.88
2018-07-10T09:04:24.233Z,241.88
2018-07-10T09:05:24.399Z,247.50
2018-07-10T09:06:24.573Z,264.38
2018-07-10T09:07:24.744Z,253.13
2018-07-10T09:08:24.924Z,298.13
2018-07-10T09:09:25.095Z,320.63
2018-07-10T09:10:25.264Z,343.13
2018-07-10T09:11:25.441Z,365.63
2018-07-10T09:12:25.614Z,371.25
2018-07-10T09:13:25.790Z,382.50
2018-07-10T09:14:25.958Z,393.75
2018-07-10T09:15:26.126Z,393.75
2018-07-10T09:16:26.296Z,399.38
2018-07-10T09:17:26.468Z,393.75
2018-07-10T09:18:26.637Z,393.75
2018-07-10T09:19:26.803Z,393.75
2018-07-10T09:20:26.976Z,405.00
2018-07-10T09:21:27.145Z,405.00
2018-07-10T09:22:27.321Z,427.50
2018-07-10T09:23:27.502Z,466.88
2018-07-10T09:24:27.684Z,489.38
2018-07-10T09:25:27.862Z,483.75
2018-07-10T09:26:28.046Z,478.13
2018-07-10T09:27:28.212Z,472.50
2018-07-10T09:28:28.382Z,478.13
2018-07-10T09:29:28.597Z,472.50
2018-07-10T09:30:28.724Z,466.88
2018-07-10T09:31:28.906Z,466.88
2018-07-10T09:32:29.088Z,455.63
2018-07-10T09:33:29.291Z,461.25
2018-07-10T09:34:29.426Z,438.75
2018-07-10T09:35:29.607Z,410.63
2018-07-10T09:36:29.778Z,410.63
2018-07-10T09:37:29.954Z,444.38
2018-07-10T09:38:30.133Z,483.75
2018-07-10T09:39:30.317Z,534.38
2018-07-10T09:40:30.475Z,551.25
2018-07-10T09:41:30.648Z,573.75
2018-07-10T09:42:30.829Z,601.88
2018-07-10T09:43:31.011Z,590.63
2018-07-10T09:44:31.179Z,596.25
2018-07-10T09:45:31.359Z,596.25
2018-07-10T09:46:31.543Z,579.38
2018-07-10T09:47:31.715Z,545.63
2018-07-10T09:48:31.888Z,534.38
2018-07-10T09:49:32.069Z,562.50
2018-07-10T09:50:32.237Z,551.25
2018-07-10T09:51:32.406Z,523.13
2018-07-10T09:52:32.589Z,517.50
2018-07-10T09:53:32.761Z,540.00
2018-07-10T09:54:32.938Z,551.25
2018-07-10T09:55:33.117Z,534.38
2018-07-10T09:56:33.298Z,495.00
2018-07-10T09:57:33.470Z,466.88
2018-07-10T09:58:33.641Z,433.13
2018-07-10T09:59:33.814Z,410.63
2018-07-10T10:00:33.999Z,393.75
2018-07-10T10:01:34.176Z,382.50
2018-07-10T10:02:34.344Z,348.75
2018-07-10T10:03:34.517Z,326.25
2018-07-10T10:04:34.694Z,303.75
2018-07-10T10:05:34.873Z,292.50
2018-07-10T10:06:35.040Z,286.88
2018-07-10T10:07:35.211Z,286.88
2018-07-10T10:08:35.384Z,286.88
2018-07-10T10:09:35.562Z,303.75
2018-07-10T10:10:35.737Z,320.63
2018-07-10T10:11:35.914Z,343.13
2018-07-10T10:12:36.080Z,371.25
2018-07-10T10:13:36.253Z,416.25
2018-07-10T10:14:36.429Z,450.00
2018-07-10T10:15:36.594Z,489.38
2018-07-10T10:16:36.775Z,528.75
2018-07-10T10:17:36.953Z,630.00
2018-07-10T10:18:37.126Z,596.25
2018-07-10T10:19:37.295Z,596.25
2018-07-10T10:20:37.469Z,573.75
2018-07-10T10:21:37.651Z,579.38
2018-07-10T10:22:37.827Z,601.88
2018-07-10T10:23:38.004Z,658.13
2018-07-10T10:24:38.185Z,725.63
2018-07-10T10:25:38.375Z,1496.25
2018-07-10T10:26:38.532Z,871.88
2018-07-10T10:27:38.713Z,720.00
2018-07-10T10:28:38.878Z,601.88
2018-07-10T10:29:39.805Z,562.50
2018-07-10T10:30:39.806Z,534.38
2018-07-10T10:31:39.389Z,523.13
2018-07-10T10:32:39.560Z,500.63
2018-07-10T10:33:39.745Z,500.63
2018-07-10T10:34:39.927Z,511.88
2018-07-10T10:35:40.124Z,562.50
2018-07-10T10:36:40.285Z,658.13
2018-07-10T10:37:40.467Z,669.38
2018-07-10T10:38:40.639Z,607.50
2018-07-10T10:39:40.817Z,562.50
2018-07-10T10:40:40.994Z,545.63
2018-07-10T10:41:41.176Z,511.88
2018-07-10T10:42:41.348Z,461.25
2018-07-10T10:43:41.516Z,427.50
2018-07-10T10:44:41.707Z,416.25
2018-07-10T10:45:41.871Z,410.63
2018-07-10T10:46:42.807Z,405.00
2018-07-10T10:47:42.247Z,393.75
2018-07-10T10:48:42.418Z,388.13
2018-07-10T10:49:42.594Z,376.88
2018-07-10T10:50:42.772Z,360.00
2018-07-10T10:51:42.952Z,348.75
2018-07-10T10:52:43.125Z,343.13
2018-07-10T10:53:43.297Z,331.88
2018-07-10T10:54:43.474Z,320.63
2018-07-10T10:55:43.652Z,309.38
2018-07-10T10:56:43.816Z,303.75
2018-07-10T10:57:44.008Z,298.13
2018-07-10T10:58:44.183Z,303.75
2018-07-10T10:59:44.368Z,309.38
2018-07-10T11:00:44.527Z,331.88
2018-07-10T11:01:44.706Z,354.38
2018-07-10T11:02:44.937Z,376.88
2018-07-10T11:03:45.053Z,399.38
2018-07-10T11:04:45.241Z,433.13
2018-07-10T11:05:45.404Z,461.25
2018-07-10T11:06:45.567Z,495.00
2018-07-10T11:07:45.754Z,545.63
2018-07-10T11:08:45.924Z,562.50
2018-07-10T11:09:46.101Z,607.50
2018-07-10T11:10:46.270Z,669.38
2018-07-10T11:11:46.433Z,669.38
2018-07-10T11:12:46.610Z,624.38
2018-07-10T11:13:46.779Z,590.63
2018-07-10T11:14:46.960Z,545.63
2018-07-10T11:15:47.142Z,495.00
2018-07-10T11:16:47.307Z,466.88
2018-07-10T11:17:47.486Z,450.00
2018-07-10T11:18:47.656Z,438.75
2018-07-10T11:19:47.829Z,444.38
2018-07-10T11:20:48.011Z,455.63
2018-07-10T11:21:48.179Z,461.25
2018-07-10T11:22:48.349Z,466.88
2018-07-10T11:23:48.530Z,466.88
2018-07-10T11:24:48.702Z,466.88
2018-07-10T11:25:48.878Z,466.88
2018-07-10T11:26:49.052Z,461.25
2018-07-10T11:27:49.217Z,455.63
2018-07-10T11:28:49.397Z,444.38
2018-07-10T11:29:49.579Z,433.13
2018-07-10T11:30:49.751Z,421.88
2018-07-10T11:31:49.928Z,405.00
2018-07-10T11:32:50.114Z,388.13
2018-07-10T11:33:50.313Z,382.50
2018-07-10T11:34:50.451Z,382.50
2018-07-10T11:35:50.718Z,376.88
2018-07-10T11:36:50.831Z,371.25
2018-07-10T11:37:51.008Z,371.25
2018-07-10T11:38:51.185Z,376.88
2018-07-10T11:39:51.354Z,382.50
2018-07-10T11:40:51.529Z,405.00
2018-07-10T11:41:51.715Z,438.75
2018-07-10T11:42:51.883Z,478.13
2018-07-10T11:43:52.062Z,545.63
2018-07-10T11:44:52.239Z,731.25
2018-07-10T11:45:52.415Z,523.13
2018-07-10T11:46:52.588Z,534.38
2018-07-10T11:47:52.764Z,551.25
2018-07-10T11:48:52.945Z,568.13
2018-07-10T11:49:53.117Z,585.00
2018-07-10T11:50:53.349Z,613.13
2018-07-10T11:51:53.462Z,697.50
2018-07-10T11:52:53.640Z,1518.75
2018-07-10T11:53:53.815Z,613.13
2018-07-10T11:54:53.989Z,630.00
2018-07-10T11:55:54.161Z,708.75
2018-07-10T11:56:54.335Z,787.50
2018-07-10T11:57:54.515Z,669.38
2018-07-10T11:58:54.689Z,1231.88
2018-07-10T11:59:54.874Z,855.00
2018-07-10T12:00:55.045Z,731.25
2018-07-10T12:01:55.217Z,691.88
2018-07-10T12:02:55.390Z,675.00
2018-07-10T12:03:55.560Z,646.88
2018-07-10T12:04:55.772Z,635.63
2018-07-10T12:05:55.915Z,613.13
2018-07-10T12:06:56.090Z,601.88
2018-07-10T12:07:56.269Z,596.25
2018-07-10T12:08:56.447Z,630.00
2018-07-10T12:09:56.619Z,843.75
2018-07-10T12:10:56.802Z,1102.50
2018-07-10T12:11:56.977Z,714.38
2018-07-10T12:12:57.153Z,680.63
2018-07-10T12:13:57.327Z,669.38
2018-07-10T12:14:57.505Z,680.63
2018-07-10T12:15:57.678Z,736.88
2018-07-10T12:16:57.866Z,922.50
2018-07-10T12:17:58.827Z,607.50
2018-07-10T12:18:58.258Z,551.25
2018-07-10T12:19:58.434Z,534.38
2018-07-10T12:20:58.611Z,461.25
2018-07-10T12:21:58.783Z,438.75
2018-07-10T12:22:58.957Z,427.50
2018-07-10T12:23:59.174Z,405.00
2018-07-10T12:24:59.348Z,382.50
2018-07-10T12:25:59.531Z,365.63
2018-07-10T12:26:59.707Z,354.38
2018-07-10T12:27:59.942Z,337.50
2018-07-10T12:29:00.063Z,331.88
2018-07-10T12:30:00.235Z,337.50
2018-07-10T12:31:00.410Z,343.13
2018-07-10T12:32:00.587Z,343.13
2018-07-10T12:33:00.757Z,326.25
2018-07-10T12:34:00.929Z,303.75
2018-07-10T12:35:01.102Z,275.63
2018-07-10T12:36:01.430Z,264.38
2018-07-10T12:37:01.402Z,258.75
2018-07-10T12:38:01.573Z,258.75
2018-07-10T12:39:01.744Z,258.75
2018-07-10T12:40:01.959Z,253.13
2018-07-10T12:41:02.120Z,247.50
2018-07-10T12:42:02.291Z,236.25
2018-07-10T12:43:02.463Z,219.38
2018-07-10T12:44:02.645Z,202.50
2018-07-10T12:45:02.812Z,185.63
2018-07-10T12:46:03.074Z,168.75
2018-07-10T12:47:03.121Z,163.13
2018-07-10T12:48:03.312Z,168.75
2018-07-10T12:49:03.484Z,163.13
2018-07-10T12:50:03.656Z,163.13
2018-07-10T12:51:03.827Z,151.88
2018-07-10T12:52:04.002Z,140.63
2018-07-10T12:53:04.180Z,135.00
2018-07-10T12:54:04.353Z,123.75
2018-07-10T12:55:04.527Z,118.13
2018-07-10T12:56:04.723Z,112.50
2018-07-10T12:57:04.884Z,112.50
2018-07-10T12:58:05.070Z,112.50
2018-07-10T12:59:05.238Z,112.50
2018-07-10T13:00:05.403Z,118.13
2018-07-10T13:01:05.577Z,118.13
2018-07-10T13:02:05.759Z,112.50
2018-07-10T13:03:05.928Z,106.88
2018-07-10T13:04:06.104Z,101.25
2018-07-10T13:05:06.283Z,101.25
2018-07-10T13:06:06.454Z,101.25
2018-07-10T13:07:06.623Z,106.88
2018-07-10T13:08:06.801Z,112.50
2018-07-10T13:09:06.966Z,118.13
2018-07-10T13:10:07.140Z,112.50
2018-07-10T13:11:07.298Z,106.88
2018-07-10T13:12:07.508Z,101.25
2018-07-10T13:13:07.676Z,95.63
2018-07-10T13:14:07.846Z,90.00
2018-07-10T13:15:08.019Z,90.00
2018-07-10T13:16:08.201Z,101.25
2018-07-10T13:17:08.363Z,101.25
2018-07-10T13:18:08.543Z,112.50
2018-07-10T13:19:08.721Z,112.50
2018-07-10T13:20:08.894Z,112.50
2018-07-10T13:21:09.065Z,112.50
2018-07-10T13:22:09.254Z,112.50
2018-07-10T13:23:09.412Z,123.75
2018-07-10T13:24:09.586Z,135.00
2018-07-10T13:25:09.759Z,146.25
2018-07-10T13:26:09.938Z,146.25
2018-07-10T13:27:10.130Z,151.88
2018-07-10T13:28:10.288Z,157.50
2018-07-10T13:29:10.475Z,151.88
2018-07-10T13:30:10.639Z,151.88
2018-07-10T13:31:10.819Z,157.50
2018-07-10T13:32:10.994Z,174.38
2018-07-10T13:33:11.165Z,196.88
2018-07-10T13:34:11.342Z,219.38
2018-07-10T13:35:11.511Z,241.88
2018-07-10T13:36:11.696Z,258.75
2018-07-10T13:37:11.860Z,281.25
2018-07-10T13:38:12.027Z,286.88
2018-07-10T13:39:12.200Z,286.88
2018-07-10T13:40:12.375Z,298.13
2018-07-10T13:41:12.619Z,315.00
2018-07-10T13:42:12.773Z,331.88
2018-07-10T13:43:12.995Z,354.38
2018-07-10T13:44:13.120Z,371.25
2018-07-10T13:45:13.305Z,365.63
2018-07-10T13:46:13.470Z,343.13
2018-07-10T13:47:13.645Z,320.63
2018-07-10T13:48:13.823Z,315.00
2018-07-10T13:49:14.059Z,303.75
2018-07-10T13:50:14.181Z,286.88
2018-07-10T13:51:14.358Z,270.00
2018-07-10T13:52:14.544Z,258.75
2018-07-10T13:53:15.543Z,247.50
2018-07-10T13:54:14.845Z,241.88
2018-07-10T13:55:15.014Z,241.88
2018-07-10T13:56:15.185Z,236.25
2018-07-10T13:57:15.354Z,230.63
2018-07-10T13:58:15.535Z,219.38
2018-07-10T13:59:15.706Z,213.75
2018-07-10T14:00:15.903Z,202.50
2018-07-10T14:01:16.062Z,191.25
2018-07-10T14:02:16.235Z,185.63
2018-07-10T14:03:16.409Z,185.63
2018-07-10T14:04:16.605Z,191.25
2018-07-10T14:05:16.758Z,202.50
2018-07-10T14:06:16.928Z,213.75
2018-07-10T14:07:17.110Z,230.63
2018-07-10T14:08:17.282Z,236.25
2018-07-10T14:09:17.461Z,241.88
2018-07-10T14:10:17.637Z,241.88
2018-07-10T14:11:17.810Z,241.88
2018-07-10T14:12:18.042Z,236.25
2018-07-10T14:13:18.163Z,219.38
2018-07-10T14:14:18.336Z,202.50
2018-07-10T14:15:18.509Z,185.63
2018-07-10T14:16:18.679Z,180.00
2018-07-10T14:17:18.859Z,180.00
2018-07-10T14:18:20.016Z,180.00
2018-07-10T14:19:19.219Z,174.38
2018-07-10T14:20:19.412Z,168.75
2018-07-10T14:21:19.568Z,157.50
2018-07-10T14:22:19.775Z,151.88
2018-07-10T14:23:19.916Z,146.25
2018-07-10T14:24:20.091Z,146.25
2018-07-10T14:25:20.256Z,146.25
2018-07-10T14:26:20.423Z,151.88
2018-07-10T14:27:20.592Z,151.88
2018-07-10T14:28:20.771Z,157.50
2018-07-10T14:29:20.942Z,163.13
2018-07-10T14:30:21.121Z,168.75
2018-07-10T14:31:21.308Z,180.00
2018-07-10T14:32:21.473Z,180.00
2018-07-10T14:33:21.647Z,180.00
2018-07-10T14:34:21.817Z,168.75
2018-07-10T14:35:21.997Z,157.50
2018-07-10T14:36:22.859Z,146.25
2018-07-10T14:37:22.361Z,135.00
2018-07-10T14:38:22.528Z,123.75
2018-07-10T14:39:22.698Z,123.75
2018-07-10T14:40:22.870Z,118.13
2018-07-10T14:41:23.043Z,112.50
2018-07-10T14:42:23.212Z,112.50
2018-07-10T14:43:23.383Z,106.88
2018-07-10T14:44:23.574Z,106.88
2018-07-10T14:45:23.742Z,101.25
2018-07-10T14:46:23.914Z,101.25
2018-07-10T14:47:24.102Z,101.25
2018-07-10T14:48:24.257Z,101.25
2018-07-10T14:49:24.430Z,101.25
2018-07-10T14:50:24.605Z,95.63
2018-07-10T14:51:24.782Z,95.63
2018-07-10T14:52:24.958Z,95.63
2018-07-10T14:53:25.122Z,90.00
2018-07-10T14:54:25.284Z,90.00
2018-07-10T14:55:25.455Z,95.63
2018-07-10T14:56:25.636Z,95.63
2018-07-10T14:57:25.797Z,101.25
2018-07-10T14:58:25.968Z,106.88
2018-07-10T14:59:26.139Z,112.50
2018-07-10T15:00:26.310Z,112.50
2018-07-10T15:01:26.491Z,112.50
2018-07-10T15:02:26.641Z,106.88
2018-07-10T15:03:26.813Z,106.88
2018-07-10T15:04:26.991Z,101.25
2018-07-10T15:05:27.162Z,101.25
2018-07-10T15:06:27.358Z,95.63
2018-07-10T15:07:27.523Z,95.63
2018-07-10T15:08:27.690Z,95.63
2018-07-10T15:09:27.868Z,90.00
2018-07-10T15:10:28.041Z,84.38
2018-07-10T15:11:28.227Z,84.38
2018-07-10T15:12:28.400Z,78.75
2018-07-10T15:13:28.577Z,78.75
2018-07-10T15:14:28.790Z,73.13
2018-07-10T15:15:28.998Z,67.50
2018-07-10T15:16:29.090Z,61.88
2018-07-10T15:17:29.258Z,56.25
2018-07-10T15:18:29.433Z,56.25
2018-07-10T15:19:29.600Z,61.88
2018-07-10T15:20:29.776Z,61.88
2018-07-10T15:21:29.945Z,67.50
2018-07-10T15:22:30.115Z,78.75
2018-07-10T15:23:30.342Z,78.75
2018-07-10T15:24:30.478Z,84.38
2018-07-10T15:25:30.648Z,95.63
2018-07-10T15:26:30.818Z,95.63
2018-07-10T15:27:30.987Z,95.63
2018-07-10T15:28:31.162Z,90.00
2018-07-10T15:29:31.406Z,90.00
2018-07-10T15:30:31.460Z,95.63
2018-07-10T15:31:31.630Z,101.25
2018-07-10T15:32:31.797Z,112.50
2018-07-10T15:33:33.373Z,123.75
2018-07-10T15:34:32.146Z,129.38
2018-07-10T15:35:32.296Z,129.38
2018-07-10T15:36:32.461Z,135.00
2018-07-10T15:37:32.636Z,129.38
2018-07-10T15:38:32.802Z,123.75
2018-07-10T15:39:32.969Z,112.50
2018-07-10T15:40:33.138Z,101.25
2018-07-10T15:41:33.314Z,95.63
2018-07-10T15:42:33.481Z,95.63
2018-07-10T15:43:33.651Z,95.63
2018-07-10T15:44:33.821Z,101.25
2018-07-10T15:45:33.989Z,112.50
2018-07-10T15:46:34.158Z,129.38
2018-07-10T15:47:34.356Z,123.75
2018-07-10T15:48:34.496Z,146.25
2018-07-10T15:49:34.669Z,146.25
2018-07-10T15:50:34.844Z,135.00
2018-07-10T15:51:35.870Z,118.13
2018-07-10T15:52:35.175Z,106.88
2018-07-10T15:53:35.363Z,106.88
2018-07-10T15:54:35.544Z,95.63
2018-07-10T15:55:35.696Z,90.00
2018-07-10T15:56:35.863Z,90.00
2018-07-10T15:57:36.042Z,95.63
2018-07-10T15:58:36.233Z,95.63
2018-07-10T15:59:36.382Z,95.63
2018-07-10T16:00:36.606Z,90.00
2018-07-10T16:01:36.719Z,84.38
2018-07-10T16:02:36.889Z,84.38
2018-07-10T16:03:37.056Z,78.75
2018-07-10T16:04:37.239Z,78.75
2018-07-10T16:05:37.416Z,78.75
2018-07-10T16:06:37.596Z,73.13
2018-07-10T16:07:37.767Z,67.50
2018-07-10T16:08:37.934Z,61.88
2018-07-10T16:09:38.100Z,56.25
2018-07-10T16:10:38.270Z,56.25
2018-07-10T16:11:38.429Z,56.25
2018-07-10T16:12:38.598Z,56.25
2018-07-10T16:13:38.766Z,61.88
2018-07-10T16:14:38.934Z,61.88
2018-07-10T16:15:39.094Z,61.88
2018-07-10T16:16:39.278Z,61.88
2018-07-10T16:17:39.435Z,56.25
2018-07-10T16:18:39.607Z,56.25
2018-07-10T16:19:39.786Z,56.25
2018-07-10T16:20:39.956Z,61.88
2018-07-10T16:21:40.143Z,67.50
2018-07-10T16:22:40.318Z,67.50
2018-07-10T16:23:40.488Z,67.50
2018-07-10T16:24:40.653Z,73.13
2018-07-10T16:25:40.830Z,78.75
2018-07-10T16:26:40.987Z,78.75
2018-07-10T16:27:41.153Z,84.38
2018-07-10T16:28:41.335Z,84.38
2018-07-10T16:29:41.508Z,84.38
2018-07-10T16:30:41.689Z,84.38
2018-07-10T16:31:41.874Z,95.63
2018-07-10T16:32:42.030Z,101.25
2018-07-10T16:33:42.200Z,101.25
2018-07-10T16:34:42.367Z,101.25
2018-07-10T16:35:42.535Z,90.00
2018-07-10T16:36:42.707Z,84.38
2018-07-10T16:37:42.893Z,84.38
2018-07-10T16:38:43.056Z,84.38
2018-07-10T16:39:43.227Z,84.38
2018-07-10T16:40:43.398Z,90.00
2018-07-10T16:41:43.564Z,95.63
2018-07-10T16:42:43.739Z,95.63
2018-07-10T16:43:43.904Z,95.63
2018-07-10T16:44:44.109Z,95.63
2018-07-10T16:47:16.421Z,95.63
2018-07-10T16:48:16.649Z,95.63
2018-07-10T16:49:16.785Z,95.63
2018-07-10T16:50:16.964Z,95.63
2018-07-10T16:51:17.133Z,90.00
2018-07-10T16:52:17.302Z,78.75
2018-07-10T16:53:17.481Z,67.50
2018-07-10T16:54:17.650Z,67.50
2018-07-10T16:55:17.820Z,73.13
2018-07-10T16:56:17.985Z,78.75
2018-07-10T16:57:18.156Z,78.75
2018-07-10T16:58:18.324Z,78.75
2018-07-10T16:59:18.506Z,78.75
2018-07-10T17:00:18.675Z,78.75
2018-07-10T17:01:18.844Z,84.38
2018-07-10T17:02:19.011Z,95.63
2018-07-10T17:03:19.180Z,101.25
2018-07-10T17:04:19.349Z,101.25
2018-07-10T17:05:19.520Z,112.50
2018-07-10T17:06:19.687Z,101.25
2018-07-10T17:07:19.857Z,95.63
2018-07-10T17:08:20.022Z,95.63
2018-07-10T17:09:20.190Z,90.00
2018-07-10T17:10:20.368Z,78.75
2018-07-10T17:11:20.537Z,73.13
2018-07-10T17:12:20.714Z,67.50
2018-07-10T17:13:20.884Z,67.50
2018-07-10T17:14:21.045Z,67.50
2018-07-10T17:15:21.215Z,67.50
2018-07-10T17:16:21.387Z,67.50
2018-07-10T17:17:21.562Z,61.88
2018-07-10T17:18:21.731Z,61.88
2018-07-10T17:19:21.896Z,61.88
2018-07-10T17:20:22.066Z,67.50
2018-07-10T17:21:22.244Z,67.50
2018-07-10T17:22:22.414Z,67.50
2018-07-10T17:23:22.594Z,73.13
2018-07-10T17:24:22.751Z,78.75
2018-07-10T17:25:22.926Z,84.38
2018-07-10T17:26:23.095Z,90.00
2018-07-10T17:27:23.278Z,90.00
2018-07-10T17:28:23.444Z,90.00
2018-07-10T17:29:23.612Z,78.75
2018-07-10T17:30:23.790Z,67.50
2018-07-10T17:31:23.961Z,61.88
2018-07-10T17:32:24.143Z,50.63
2018-07-10T17:33:24.310Z,50.63
2018-07-10T17:34:24.477Z,56.25
2018-07-10T17:35:24.644Z,61.88
2018-07-10T17:36:24.819Z,61.88
2018-07-10T17:37:24.990Z,61.88
2018-07-10T17:38:25.156Z,61.88
2018-07-10T17:39:25.315Z,61.88
2018-07-10T17:40:25.488Z,61.88
2018-07-10T17:41:25.658Z,61.88
2018-07-10T17:42:25.839Z,67.50
2018-07-10T17:43:26.005Z,67.50
2018-07-10T17:44:26.170Z,73.13
2018-07-10T17:45:26.341Z,73.13
2018-07-10T17:46:26.513Z,73.13
2018-07-10T17:47:26.681Z,67.50
2018-07-10T17:48:26.850Z,67.50
2018-07-10T17:49:27.018Z,61.88
2018-07-10T17:50:27.187Z,61.88
2018-07-10T17:51:27.355Z,50.63
2018-07-10T17:52:27.529Z,45.00
2018-07-10T17:53:27.707Z,45.00
2018-07-10T17:54:28.011Z,39.38
2018-07-10T17:55:28.019Z,39.38
2018-07-10T17:56:28.187Z,39.38
2018-07-10T17:57:28.362Z,39.38
2018-07-10T17:58:28.534Z,39.38
2018-07-10T17:59:28.695Z,39.38
2018-07-10T18:00:28.862Z,39.38
2018-07-10T18:01:29.099Z,39.38
2018-07-10T18:02:29.215Z,33.75
2018-07-10T18:03:29.376Z,33.75
2018-07-10T18:04:29.540Z,33.75
2018-07-10T18:05:29.713Z,28.13
2018-07-10T18:06:29.877Z,28.13
2018-07-10T18:07:30.045Z,22.50
2018-07-10T18:08:30.208Z,22.50
2018-07-10T18:09:30.378Z,16.88
2018-07-10T18:10:30.547Z,16.88
2018-07-10T18:11:30.712Z,11.25
2018-07-10T18:12:30.888Z,11.25
2018-07-10T18:13:31.048Z,11.25
2018-07-10T18:14:31.219Z,5.63
2018-07-10T18:15:31.388Z,5.63
2018-07-10T18:16:31.681Z,5.63
2018-07-10T18:17:31.748Z,11.25
2018-07-10T18:18:31.925Z,11.25
2018-07-10T18:19:32.090Z,11.25
2018-07-10T18:20:32.275Z,11.25
2018-07-10T18:21:32.437Z,11.25
2018-07-10T18:22:32.671Z,11.25
2018-07-10T18:23:32.810Z,11.25
2018-07-10T18:24:32.980Z,11.25
2018-07-10T18:25:33.155Z,11.25
2018-07-10T18:26:33.324Z,11.25
2018-07-10T18:27:33.502Z,11.25
2018-07-10T18:28:33.688Z,5.63
2018-07-10T18:29:33.859Z,5.63
2018-07-10T18:30:34.029Z,5.63
2018-07-10T18:31:34.186Z,5.63
2018-07-10T18:32:34.365Z,5.63
2018-07-10T18:33:34.534Z,5.63
2018-07-10T18:34:34.705Z,5.63
2018-07-10T18:35:34.876Z,5.63
2018-07-10T18:36:35.082Z,5.63
2018-07-10T18:37:35.233Z,5.63
2018-07-10T18:38:35.400Z,5.63
2018-07-10T18:39:35.617Z,5.63
2018-07-10T18:40:35.742Z,5.63
2018-07-10T18:41:35.912Z,5.63
2018-07-10T18:42:36.087Z,5.63
2018-07-10T18:43:36.254Z,5.63
2018-07-10T18:44:36.418Z,5.63
2018-07-10T18:45:36.590Z,5.63
2018-07-10T18:46:36.758Z,0.00
2018-07-10T18:47:36.939Z,0.00
2018-07-10T18:48:37.156Z,0.00
2018-07-10T18:49:37.280Z,0.00
2018-07-10T18:50:37.436Z,0.00
2018-07-10T18:51:37.604Z,0.00
2018-07-10T18:52:37.780Z,0.00
2018-07-10T18:53:37.950Z,0.00
2018-07-10T18:54:38.128Z,0.00
2018-07-10T18:55:38.280Z,0.00
2018-07-10T18:56:38.454Z,0.00
2018-07-10T18:57:38.622Z,0.00
2018-07-10T18:58:38.796Z,0.00
2018-07-10T18:59:38.992Z,0.00
2018-07-10T19:00:39.155Z,0.00
2018-07-10T19:01:39.305Z,0.00
2018-07-10T19:02:39.470Z,0.00
2018-07-10T19:03:39.650Z,0.00
2018-07-10T19:04:39.802Z,0.00
2018-07-10T19:05:39.969Z,0.00
2018-07-10T19:06:40.136Z,0.00
2018-07-10T19:07:40.307Z,0.00
2018-07-10T19:08:40.477Z,0.00
2018-07-10T19:09:40.649Z,0.00
2018-07-10T19:10:40.870Z,0.00